sensor_id;sensor_type;location;lat;lon;timestamp;temperature;humidity
41592;DHT22;28026;48.562;14.440;2023-06-26T00:01:12;16.80;99.90
41592;DHT22;28026;48.562;14.440;2023-06-26T00:03:43;16.80;99.90
41592;DHT22;28026;48.562;14.440;2023-06-26T00:06:13;16.80;99.90
41592;DHT22;28026;48.562;14.440;2023-06-26T00:08:44;16.80;99.90
41592;DHT22;28026;48.562;14.440;2023-06-26T00:11:16;16.70;99.90
41592;DHT22;28026;48.562;14.440;2023-06-26T00:13:47;16.80;99.90
41592;DHT22;28026;48.562;14.440;2023-06-26T00:16:18;16.90;99.90
41592;DHT22;28026;48.562;14.440;2023-06-26T00:18:49;16.90;99.90
41592;DHT22;28026;48.562;14.440;2023-06-26T00:21:20;16.90;99.90
41592;DHT22;28026;48.562;14.440;2023-06-26T00:23:51;16.90;99.90
41592;DHT22;28026;48.562;14.440;2023-06-26T00:26:22;16.90;99.90
41592;DHT22;28026;48.562;14.440;2023-06-26T00:28:54;16.90;99.90
41592;DHT22;28026;48.562;14.440;2023-06-26T00:31:25;16.90;99.90
41592;DHT22;28026;48.562;14.440;2023-06-26T00:33:55;16.90;99.90
41592;DHT22;28026;48.562;14.440;2023-06-26T00:36:26;16.80;99.90
41592;DHT22;28026;48.562;14.440;2023-06-26T00:38:57;16.70;99.90
41592;DHT22;28026;48.562;14.440;2023-06-26T00:41:29;16.70;99.90
41592;DHT22;28026;48.562;14.440;2023-06-26T00:44:00;16.70;99.90
41592;DHT22;28026;48.562;14.440;2023-06-26T00:46:30;16.70;99.90
41592;DHT22;28026;48.562;14.440;2023-06-26T00:49:02;16.70;99.90
41592;DHT22;28026;48.562;14.440;2023-06-26T00:51:34;16.70;99.90
41592;DHT22;28026;48.562;14.440;2023-06-26T00:54:05;16.60;99.90
41592;DHT22;28026;48.562;14.440;2023-06-26T00:56:37;16.60;99.90
41592;DHT22;28026;48.562;14.440;2023-06-26T00:59:08;16.40;99.90
41592;DHT22;28026;48.562;14.440;2023-06-26T01:01:38;16.10;99.90
41592;DHT22;28026;48.562;14.440;2023-06-26T01:04:09;16.10;99.90
41592;DHT22;28026;48.562;14.440;2023-06-26T01:06:47;16.20;99.90
41592;DHT22;28026;48.562;14.440;2023-06-26T01:09:21;16.30;99.90
41592;DHT22;28026;48.562;14.440;2023-06-26T01:11:53;16.30;99.90
41592;DHT22;28026;48.562;14.440;2023-06-26T01:14:25;16.30;99.90
41592;DHT22;28026;48.562;14.440;2023-06-26T01:16:55;16.20;99.90
41592;DHT22;28026;48.562;14.440;2023-06-26T01:19:28;16.00;99.90
41592;DHT22;28026;48.562;14.440;2023-06-26T01:27:52;15.70;99.90
41592;DHT22;28026;48.562;14.440;2023-06-26T01:30:25;15.80;99.90
41592;DHT22;28026;48.562;14.440;2023-06-26T01:32:56;15.90;99.90
41592;DHT22;28026;48.562;14.440;2023-06-26T01:35:27;15.90;99.90
41592;DHT22;28026;48.562;14.440;2023-06-26T01:38:11;15.80;99.90
41592;DHT22;28026;48.562;14.440;2023-06-26T01:40:47;15.80;99.90
41592;DHT22;28026;48.562;14.440;2023-06-26T01:47:08;15.90;99.90
41592;DHT22;28026;48.562;14.440;2023-06-26T01:49:38;15.90;99.90
41592;DHT22;28026;48.562;14.440;2023-06-26T01:52:32;16.00;99.90
41592;DHT22;28026;48.562;14.440;2023-06-26T01:58:06;16.00;99.90
41592;DHT22;28026;48.562;14.440;2023-06-26T02:00:37;16.00;99.90
41592;DHT22;28026;48.562;14.440;2023-06-26T02:03:08;16.00;99.90
41592;DHT22;28026;48.562;14.440;2023-06-26T02:05:39;15.90;99.90
41592;DHT22;28026;48.562;14.440;2023-06-26T02:08:14;15.90;99.90
41592;DHT22;28026;48.562;14.440;2023-06-26T02:10:45;15.80;99.90
41592;DHT22;28026;48.562;14.440;2023-06-26T02:13:16;15.80;99.90
41592;DHT22;28026;48.562;14.440;2023-06-26T02:15:47;15.70;99.90
41592;DHT22;28026;48.562;14.440;2023-06-26T02:18:18;15.50;99.90
41592;DHT22;28026;48.562;14.440;2023-06-26T02:20:51;15.40;99.90
41592;DHT22;28026;48.562;14.440;2023-06-26T02:23:22;15.30;99.90
41592;DHT22;28026;48.562;14.440;2023-06-26T02:25:53;15.20;99.90
41592;DHT22;28026;48.562;14.440;2023-06-26T02:28:23;15.30;99.90
41592;DHT22;28026;48.562;14.440;2023-06-26T02:30:54;15.40;99.90
41592;DHT22;28026;48.562;14.440;2023-06-26T02:33:25;15.40;99.90
41592;DHT22;28026;48.562;14.440;2023-06-26T02:35:56;15.40;99.90
41592;DHT22;28026;48.562;14.440;2023-06-26T02:38:26;15.50;99.90
41592;DHT22;28026;48.562;14.440;2023-06-26T02:40:57;15.40;99.90
41592;DHT22;28026;48.562;14.440;2023-06-26T02:43:28;15.40;99.90
41592;DHT22;28026;48.562;14.440;2023-06-26T02:45:58;15.30;99.90
41592;DHT22;28026;48.562;14.440;2023-06-26T02:48:29;15.30;99.90
41592;DHT22;28026;48.562;14.440;2023-06-26T02:51:00;15.20;99.90
41592;DHT22;28026;48.562;14.440;2023-06-26T02:53:31;15.10;99.90
41592;DHT22;28026;48.562;14.440;2023-06-26T02:56:02;15.00;99.90
41592;DHT22;28026;48.562;14.440;2023-06-26T02:58:33;15.10;99.90
41592;DHT22;28026;48.562;14.440;2023-06-26T03:01:04;15.10;99.90
41592;DHT22;28026;48.562;14.440;2023-06-26T03:03:34;15.20;99.90
41592;DHT22;28026;48.562;14.440;2023-06-26T03:06:10;15.20;99.90
41592;DHT22;28026;48.562;14.440;2023-06-26T03:08:41;15.20;99.90
41592;DHT22;28026;48.562;14.440;2023-06-26T03:11:12;15.20;99.90
41592;DHT22;28026;48.562;14.440;2023-06-26T03:13:43;15.10;99.90
41592;DHT22;28026;48.562;14.440;2023-06-26T03:16:14;15.10;99.90
41592;DHT22;28026;48.562;14.440;2023-06-26T03:18:44;15.10;99.90
41592;DHT22;28026;48.562;14.440;2023-06-26T03:21:15;15.10;99.90
41592;DHT22;28026;48.562;14.440;2023-06-26T03:23:47;14.90;99.90
41592;DHT22;28026;48.562;14.440;2023-06-26T03:26:18;14.90;99.90
41592;DHT22;28026;48.562;14.440;2023-06-26T03:28:49;14.90;99.90
41592;DHT22;28026;48.562;14.440;2023-06-26T03:31:20;15.00;99.90
41592;DHT22;28026;48.562;14.440;2023-06-26T03:33:50;15.20;99.90
41592;DHT22;28026;48.562;14.440;2023-06-26T03:36:21;15.30;99.90
41592;DHT22;28026;48.562;14.440;2023-06-26T03:38:52;15.30;99.90
41592;DHT22;28026;48.562;14.440;2023-06-26T03:41:27;15.20;99.90
41592;DHT22;28026;48.562;14.440;2023-06-26T03:43:57;15.20;99.90
41592;DHT22;28026;48.562;14.440;2023-06-26T03:46:30;15.30;99.90
41592;DHT22;28026;48.562;14.440;2023-06-26T03:49:01;15.40;99.90
41592;DHT22;28026;48.562;14.440;2023-06-26T03:51:32;15.50;99.90
41592;DHT22;28026;48.562;14.440;2023-06-26T03:54:03;15.50;99.90
41592;DHT22;28026;48.562;14.440;2023-06-26T03:56:33;15.50;99.90
41592;DHT22;28026;48.562;14.440;2023-06-26T03:59:04;15.50;99.90
41592;DHT22;28026;48.562;14.440;2023-06-26T04:01:35;15.60;99.90
41592;DHT22;28026;48.562;14.440;2023-06-26T04:04:08;15.70;99.90
41592;DHT22;28026;48.562;14.440;2023-06-26T04:06:39;15.80;99.90
41592;DHT22;28026;48.562;14.440;2023-06-26T04:09:10;15.70;99.90
41592;DHT22;28026;48.562;14.440;2023-06-26T04:11:40;15.80;99.90
41592;DHT22;28026;48.562;14.440;2023-06-26T04:14:11;15.90;99.90
41592;DHT22;28026;48.562;14.440;2023-06-26T04:16:43;16.00;99.90
41592;DHT22;28026;48.562;14.440;2023-06-26T04:19:14;16.10;99.90
41592;DHT22;28026;48.562;14.440;2023-06-26T04:21:45;16.10;99.90
41592;DHT22;28026;48.562;14.440;2023-06-26T04:24:16;16.20;99.90
41592;DHT22;28026;48.562;14.440;2023-06-26T04:26:47;16.30;99.90
41592;DHT22;28026;48.562;14.440;2023-06-26T04:29:18;16.40;99.90
41592;DHT22;28026;48.562;14.440;2023-06-26T04:31:49;16.40;99.90
41592;DHT22;28026;48.562;14.440;2023-06-26T04:34:19;16.40;99.90
41592;DHT22;28026;48.562;14.440;2023-06-26T04:36:50;16.10;99.90
41592;DHT22;28026;48.562;14.440;2023-06-26T04:39:22;16.20;99.90
41592;DHT22;28026;48.562;14.440;2023-06-26T04:41:52;16.20;99.90
41592;DHT22;28026;48.562;14.440;2023-06-26T04:44:23;16.40;99.90
41592;DHT22;28026;48.562;14.440;2023-06-26T04:46:54;16.60;99.90
41592;DHT22;28026;48.562;14.440;2023-06-26T04:49:25;16.80;99.90
41592;DHT22;28026;48.562;14.440;2023-06-26T04:51:58;16.90;99.90
41592;DHT22;28026;48.562;14.440;2023-06-26T04:54:30;17.20;99.90
41592;DHT22;28026;48.562;14.440;2023-06-26T04:57:01;17.30;99.90
41592;DHT22;28026;48.562;14.440;2023-06-26T04:59:31;17.50;99.90
41592;DHT22;28026;48.562;14.440;2023-06-26T05:02:02;17.70;99.90
41592;DHT22;28026;48.562;14.440;2023-06-26T05:04:35;17.60;99.90
41592;DHT22;28026;48.562;14.440;2023-06-26T05:07:06;18.00;99.90
41592;DHT22;28026;48.562;14.440;2023-06-26T05:09:36;18.30;99.90
41592;DHT22;28026;48.562;14.440;2023-06-26T05:12:07;18.50;99.90
41592;DHT22;28026;48.562;14.440;2023-06-26T05:14:38;18.50;99.90
41592;DHT22;28026;48.562;14.440;2023-06-26T05:17:09;18.60;99.90
41592;DHT22;28026;48.562;14.440;2023-06-26T05:19:40;18.70;99.90
41592;DHT22;28026;48.562;14.440;2023-06-26T05:22:12;18.70;99.90
41592;DHT22;28026;48.562;14.440;2023-06-26T05:24:44;18.70;99.90
41592;DHT22;28026;48.562;14.440;2023-06-26T05:27:17;18.60;99.90
41592;DHT22;28026;48.562;14.440;2023-06-26T05:29:52;18.80;99.90
41592;DHT22;28026;48.562;14.440;2023-06-26T05:32:23;19.00;99.90
41592;DHT22;28026;48.562;14.440;2023-06-26T05:34:54;19.10;99.90
41592;DHT22;28026;48.562;14.440;2023-06-26T05:37:26;19.30;99.90
41592;DHT22;28026;48.562;14.440;2023-06-26T05:39:58;19.60;99.90
41592;DHT22;28026;48.562;14.440;2023-06-26T05:42:30;19.70;99.90
41592;DHT22;28026;48.562;14.440;2023-06-26T05:45:01;19.80;99.90
41592;DHT22;28026;48.562;14.440;2023-06-26T05:47:32;19.70;99.90
41592;DHT22;28026;48.562;14.440;2023-06-26T05:50:03;19.70;99.90
41592;DHT22;28026;48.562;14.440;2023-06-26T05:52:36;19.90;99.90
41592;DHT22;28026;48.562;14.440;2023-06-26T05:55:09;20.10;99.90
41592;DHT22;28026;48.562;14.440;2023-06-26T05:57:41;19.90;99.90
41592;DHT22;28026;48.562;14.440;2023-06-26T06:00:13;20.10;99.90
41592;DHT22;28026;48.562;14.440;2023-06-26T06:02:45;20.30;99.90
41592;DHT22;28026;48.562;14.440;2023-06-26T06:05:15;20.50;99.90
41592;DHT22;28026;48.562;14.440;2023-06-26T06:07:46;20.70;99.90
41592;DHT22;28026;48.562;14.440;2023-06-26T06:10:17;21.20;99.90
41592;DHT22;28026;48.562;14.440;2023-06-26T06:12:48;21.40;99.90
41592;DHT22;28026;48.562;14.440;2023-06-26T06:15:19;21.50;99.90
41592;DHT22;28026;48.562;14.440;2023-06-26T06:17:50;21.60;99.90
41592;DHT22;28026;48.562;14.440;2023-06-26T06:20:20;21.70;99.90
41592;DHT22;28026;48.562;14.440;2023-06-26T06:22:51;21.50;99.90
41592;DHT22;28026;48.562;14.440;2023-06-26T06:25:23;21.60;99.90
41592;DHT22;28026;48.562;14.440;2023-06-26T06:27:53;21.90;99.90
41592;DHT22;28026;48.562;14.440;2023-06-26T06:30:24;22.10;99.90
41592;DHT22;28026;48.562;14.440;2023-06-26T06:32:55;22.00;99.90
41592;DHT22;28026;48.562;14.440;2023-06-26T06:35:26;21.80;99.90
41592;DHT22;28026;48.562;14.440;2023-06-26T06:37:57;22.00;99.90
41592;DHT22;28026;48.562;14.440;2023-06-26T06:40:29;22.30;99.90
41592;DHT22;28026;48.562;14.440;2023-06-26T06:43:00;22.40;99.90
41592;DHT22;28026;48.562;14.440;2023-06-26T06:45:31;22.50;99.90
41592;DHT22;28026;48.562;14.440;2023-06-26T06:48:01;22.90;99.90
41592;DHT22;28026;48.562;14.440;2023-06-26T06:50:32;23.40;99.90
41592;DHT22;28026;48.562;14.440;2023-06-26T06:53:03;23.60;99.90
41592;DHT22;28026;48.562;14.440;2023-06-26T06:55:34;23.10;99.90
41592;DHT22;28026;48.562;14.440;2023-06-26T06:58:05;23.40;99.90
41592;DHT22;28026;48.562;14.440;2023-06-26T07:00:35;22.80;99.90
41592;DHT22;28026;48.562;14.440;2023-06-26T07:03:06;22.90;99.90
41592;DHT22;28026;48.562;14.440;2023-06-26T07:05:37;22.60;99.90
41592;DHT22;28026;48.562;14.440;2023-06-26T07:08:08;23.10;99.90
41592;DHT22;28026;48.562;14.440;2023-06-26T07:10:39;22.80;99.90
41592;DHT22;28026;48.562;14.440;2023-06-26T07:13:09;23.10;99.90
41592;DHT22;28026;48.562;14.440;2023-06-26T07:15:40;23.10;99.90
41592;DHT22;28026;48.562;14.440;2023-06-26T07:18:11;23.00;99.90
41592;DHT22;28026;48.562;14.440;2023-06-26T07:20:42;23.30;99.90
41592;DHT22;28026;48.562;14.440;2023-06-26T07:23:13;23.40;99.90
41592;DHT22;28026;48.562;14.440;2023-06-26T07:25:43;23.40;99.90
41592;DHT22;28026;48.562;14.440;2023-06-26T07:28:14;23.50;99.90
41592;DHT22;28026;48.562;14.440;2023-06-26T07:30:45;23.50;99.90
41592;DHT22;28026;48.562;14.440;2023-06-26T07:33:16;23.10;99.90
41592;DHT22;28026;48.562;14.440;2023-06-26T07:35:47;22.90;99.90
41592;DHT22;28026;48.562;14.440;2023-06-26T07:38:18;22.90;99.90
41592;DHT22;28026;48.562;14.440;2023-06-26T07:40:48;23.30;99.90
41592;DHT22;28026;48.562;14.440;2023-06-26T07:43:21;23.20;99.90
41592;DHT22;28026;48.562;14.440;2023-06-26T07:45:53;23.40;99.90
41592;DHT22;28026;48.562;14.440;2023-06-26T07:48:24;23.10;99.90
41592;DHT22;28026;48.562;14.440;2023-06-26T07:50:55;22.80;99.90
41592;DHT22;28026;48.562;14.440;2023-06-26T07:53:26;23.30;99.90
41592;DHT22;28026;48.562;14.440;2023-06-26T07:55:57;23.40;99.90
41592;DHT22;28026;48.562;14.440;2023-06-26T07:58:28;23.70;99.90
41592;DHT22;28026;48.562;14.440;2023-06-26T08:00:58;23.70;99.90
41592;DHT22;28026;48.562;14.440;2023-06-26T08:03:29;23.60;99.90
41592;DHT22;28026;48.562;14.440;2023-06-26T08:06:00;23.70;99.90
41592;DHT22;28026;48.562;14.440;2023-06-26T08:08:31;24.40;99.90
41592;DHT22;28026;48.562;14.440;2023-06-26T08:11:02;24.50;99.90
41592;DHT22;28026;48.562;14.440;2023-06-26T08:13:33;24.70;99.90
41592;DHT22;28026;48.562;14.440;2023-06-26T08:16:03;25.10;99.90
41592;DHT22;28026;48.562;14.440;2023-06-26T08:18:34;24.20;99.90
41592;DHT22;28026;48.562;14.440;2023-06-26T08:21:05;24.30;99.90
41592;DHT22;28026;48.562;14.440;2023-06-26T08:23:36;24.40;99.90
41592;DHT22;28026;48.562;14.440;2023-06-26T08:26:07;24.10;99.90
41592;DHT22;28026;48.562;14.440;2023-06-26T08:28:38;23.90;99.90
41592;DHT22;28026;48.562;14.440;2023-06-26T08:31:09;24.30;99.90
41592;DHT22;28026;48.562;14.440;2023-06-26T08:33:39;25.80;99.90
41592;DHT22;28026;48.562;14.440;2023-06-26T08:36:10;26.10;99.90
41592;DHT22;28026;48.562;14.440;2023-06-26T08:38:41;26.00;99.90
41592;DHT22;28026;48.562;14.440;2023-06-26T08:41:12;25.90;99.90
41592;DHT22;28026;48.562;14.440;2023-06-26T08:43:42;25.30;99.90
41592;DHT22;28026;48.562;14.440;2023-06-26T08:46:14;25.40;99.90
41592;DHT22;28026;48.562;14.440;2023-06-26T08:48:48;26.70;99.90
41592;DHT22;28026;48.562;14.440;2023-06-26T08:51:26;27.80;99.90
41592;DHT22;28026;48.562;14.440;2023-06-26T08:54:04;28.60;99.90
41592;DHT22;28026;48.562;14.440;2023-06-26T08:56:42;28.40;99.90
41592;DHT22;28026;48.562;14.440;2023-06-26T08:59:16;27.20;99.90
41592;DHT22;28026;48.562;14.440;2023-06-26T09:01:47;26.10;99.90
41592;DHT22;28026;48.562;14.440;2023-06-26T09:04:18;25.40;99.90
41592;DHT22;28026;48.562;14.440;2023-06-26T09:06:49;24.90;99.90
41592;DHT22;28026;48.562;14.440;2023-06-26T09:09:19;24.40;99.90
41592;DHT22;28026;48.562;14.440;2023-06-26T09:11:51;23.70;99.90
41592;DHT22;28026;48.562;14.440;2023-06-26T09:14:21;23.60;99.90
41592;DHT22;28026;48.562;14.440;2023-06-26T09:16:53;23.60;99.90
41592;DHT22;28026;48.562;14.440;2023-06-26T09:19:26;23.80;99.90
41592;DHT22;28026;48.562;14.440;2023-06-26T09:21:57;24.30;99.90
41592;DHT22;28026;48.562;14.440;2023-06-26T09:24:28;25.50;99.90
41592;DHT22;28026;48.562;14.440;2023-06-26T09:27:00;26.70;99.90
41592;DHT22;28026;48.562;14.440;2023-06-26T09:29:32;26.50;99.90
41592;DHT22;28026;48.562;14.440;2023-06-26T09:32:03;26.70;99.90
41592;DHT22;28026;48.562;14.440;2023-06-26T09:34:35;27.60;99.90
41592;DHT22;28026;48.562;14.440;2023-06-26T09:37:05;26.30;99.90
41592;DHT22;28026;48.562;14.440;2023-06-26T09:39:36;26.10;99.90
41592;DHT22;28026;48.562;14.440;2023-06-26T09:42:07;25.40;99.90
41592;DHT22;28026;48.562;14.440;2023-06-26T09:44:43;25.10;99.90
41592;DHT22;28026;48.562;14.440;2023-06-26T09:47:15;24.90;99.90
41592;DHT22;28026;48.562;14.440;2023-06-26T09:49:48;25.30;99.90
41592;DHT22;28026;48.562;14.440;2023-06-26T09:52:19;25.30;99.90
41592;DHT22;28026;48.562;14.440;2023-06-26T09:54:50;25.50;99.90
41592;DHT22;28026;48.562;14.440;2023-06-26T09:57:21;25.30;99.90
41592;DHT22;28026;48.562;14.440;2023-06-26T09:59:52;24.70;99.90
41592;DHT22;28026;48.562;14.440;2023-06-26T10:02:23;24.60;99.90
41592;DHT22;28026;48.562;14.440;2023-06-26T10:04:53;25.10;99.90
41592;DHT22;28026;48.562;14.440;2023-06-26T10:07:24;25.50;99.90
41592;DHT22;28026;48.562;14.440;2023-06-26T10:09:56;25.70;99.90
41592;DHT22;28026;48.562;14.440;2023-06-26T10:12:29;25.70;99.90
41592;DHT22;28026;48.562;14.440;2023-06-26T10:15:02;25.80;99.90
41592;DHT22;28026;48.562;14.440;2023-06-26T10:17:35;24.90;99.90
41592;DHT22;28026;48.562;14.440;2023-06-26T10:20:09;24.40;99.90
41592;DHT22;28026;48.562;14.440;2023-06-26T10:22:43;25.10;99.90
41592;DHT22;28026;48.562;14.440;2023-06-26T10:25:18;26.40;99.90
41592;DHT22;28026;48.562;14.440;2023-06-26T10:27:54;27.40;99.90
41592;DHT22;28026;48.562;14.440;2023-06-26T10:30:30;27.90;99.90
41592;DHT22;28026;48.562;14.440;2023-06-26T10:33:06;28.20;99.90
41592;DHT22;28026;48.562;14.440;2023-06-26T10:35:44;27.50;99.90
41592;DHT22;28026;48.562;14.440;2023-06-26T10:38:16;27.70;99.90
41592;DHT22;28026;48.562;14.440;2023-06-26T10:40:47;28.80;99.90
41592;DHT22;28026;48.562;14.440;2023-06-26T10:43:29;28.50;99.90
41592;DHT22;28026;48.562;14.440;2023-06-26T10:46:01;28.30;99.90
41592;DHT22;28026;48.562;14.440;2023-06-26T10:48:32;29.00;99.90
41592;DHT22;28026;48.562;14.440;2023-06-26T10:51:22;28.50;99.90
41592;DHT22;28026;48.562;14.440;2023-06-26T10:53:55;27.80;99.90
41592;DHT22;28026;48.562;14.440;2023-06-26T10:59:21;26.90;99.90
41592;DHT22;28026;48.562;14.440;2023-06-26T11:12:38;26.10;99.90
41592;DHT22;28026;48.562;14.440;2023-06-26T11:15:18;26.10;99.90
41592;DHT22;28026;48.562;14.440;2023-06-26T11:17:49;26.60;99.90
41592;DHT22;28026;48.562;14.440;2023-06-26T11:20:21;28.00;99.90
41592;DHT22;28026;48.562;14.440;2023-06-26T11:22:52;27.60;99.90
41592;DHT22;28026;48.562;14.440;2023-06-26T11:25:25;26.30;99.90
41592;DHT22;28026;48.562;14.440;2023-06-26T11:27:57;25.90;99.90
41592;DHT22;28026;48.562;14.440;2023-06-26T11:30:28;25.70;99.90
41592;DHT22;28026;48.562;14.440;2023-06-26T11:33:08;25.40;99.90
41592;DHT22;28026;48.562;14.440;2023-06-26T11:35:40;25.50;99.90
41592;DHT22;28026;48.562;14.440;2023-06-26T11:38:12;26.90;99.90
41592;DHT22;28026;48.562;14.440;2023-06-26T11:40:43;27.30;99.90
41592;DHT22;28026;48.562;14.440;2023-06-26T11:43:13;27.10;99.90
41592;DHT22;28026;48.562;14.440;2023-06-26T11:45:45;27.00;99.90
41592;DHT22;28026;48.562;14.440;2023-06-26T11:48:19;26.90;99.90
41592;DHT22;28026;48.562;14.440;2023-06-26T11:50:51;27.70;99.90
41592;DHT22;28026;48.562;14.440;2023-06-26T11:53:22;29.20;99.90
41592;DHT22;28026;48.562;14.440;2023-06-26T11:55:52;29.10;99.90
41592;DHT22;28026;48.562;14.440;2023-06-26T11:58:23;27.80;99.90
41592;DHT22;28026;48.562;14.440;2023-06-26T12:00:54;26.90;99.90
41592;DHT22;28026;48.562;14.440;2023-06-26T12:03:25;26.40;99.90
41592;DHT22;28026;48.562;14.440;2023-06-26T12:05:56;25.80;99.90
41592;DHT22;28026;48.562;14.440;2023-06-26T12:08:27;25.60;99.90
41592;DHT22;28026;48.562;14.440;2023-06-26T12:10:58;26.40;99.90
41592;DHT22;28026;48.562;14.440;2023-06-26T12:13:29;26.80;99.90
41592;DHT22;28026;48.562;14.440;2023-06-26T12:16:00;26.70;99.90
41592;DHT22;28026;48.562;14.440;2023-06-26T12:18:34;27.10;99.90
41592;DHT22;28026;48.562;14.440;2023-06-26T12:21:06;27.30;99.90
41592;DHT22;28026;48.562;14.440;2023-06-26T12:23:39;26.80;99.90
41592;DHT22;28026;48.562;14.440;2023-06-26T12:26:20;26.20;99.90
41592;DHT22;28026;48.562;14.440;2023-06-26T12:28:52;26.40;99.90
41592;DHT22;28026;48.562;14.440;2023-06-26T12:31:22;26.60;99.90
41592;DHT22;28026;48.562;14.440;2023-06-26T12:33:53;26.80;99.90
41592;DHT22;28026;48.562;14.440;2023-06-26T12:36:24;26.90;99.90
41592;DHT22;28026;48.562;14.440;2023-06-26T12:38:55;26.70;99.90
41592;DHT22;28026;48.562;14.440;2023-06-26T12:41:26;26.80;99.90
41592;DHT22;28026;48.562;14.440;2023-06-26T12:43:57;26.80;99.90
41592;DHT22;28026;48.562;14.440;2023-06-26T12:46:34;26.50;99.90
41592;DHT22;28026;48.562;14.440;2023-06-26T12:49:05;27.10;99.90
41592;DHT22;28026;48.562;14.440;2023-06-26T12:51:36;27.20;99.90
41592;DHT22;28026;48.562;14.440;2023-06-26T12:54:07;26.90;99.90
41592;DHT22;28026;48.562;14.440;2023-06-26T12:56:38;26.30;99.90
41592;DHT22;28026;48.562;14.440;2023-06-26T12:59:08;26.90;99.90
41592;DHT22;28026;48.562;14.440;2023-06-26T13:01:39;27.80;99.90
41592;DHT22;28026;48.562;14.440;2023-06-26T13:04:10;27.60;99.90
41592;DHT22;28026;48.562;14.440;2023-06-26T13:06:41;27.80;99.90
41592;DHT22;28026;48.562;14.440;2023-06-26T13:09:12;27.30;99.90
41592;DHT22;28026;48.562;14.440;2023-06-26T13:11:43;27.00;99.90
41592;DHT22;28026;48.562;14.440;2023-06-26T13:14:14;27.00;99.90
41592;DHT22;28026;48.562;14.440;2023-06-26T13:16:45;26.90;99.90
41592;DHT22;28026;48.562;14.440;2023-06-26T13:19:15;27.00;99.90
41592;DHT22;28026;48.562;14.440;2023-06-26T13:21:46;27.00;99.90
41592;DHT22;28026;48.562;14.440;2023-06-26T13:24:17;26.30;99.90
41592;DHT22;28026;48.562;14.440;2023-06-26T13:26:48;26.20;99.90
41592;DHT22;28026;48.562;14.440;2023-06-26T13:29:18;26.70;99.90
41592;DHT22;28026;48.562;14.440;2023-06-26T13:31:49;27.10;99.90
41592;DHT22;28026;48.562;14.440;2023-06-26T13:34:20;27.00;99.90
41592;DHT22;28026;48.562;14.440;2023-06-26T13:36:58;27.20;99.90
41592;DHT22;28026;48.562;14.440;2023-06-26T13:39:30;26.90;99.90
41592;DHT22;28026;48.562;14.440;2023-06-26T13:42:01;26.90;99.90
41592;DHT22;28026;48.562;14.440;2023-06-26T13:44:32;27.00;99.90
41592;DHT22;28026;48.562;14.440;2023-06-26T13:47:03;27.50;99.90
41592;DHT22;28026;48.562;14.440;2023-06-26T13:49:34;27.60;99.90
41592;DHT22;28026;48.562;14.440;2023-06-26T13:52:05;27.30;99.90
41592;DHT22;28026;48.562;14.440;2023-06-26T13:54:38;27.30;99.90
41592;DHT22;28026;48.562;14.440;2023-06-26T13:57:10;26.60;99.90
41592;DHT22;28026;48.562;14.440;2023-06-26T13:59:41;26.50;99.90
41592;DHT22;28026;48.562;14.440;2023-06-26T14:02:11;27.30;99.90
41592;DHT22;28026;48.562;14.440;2023-06-26T14:04:42;27.80;99.90
41592;DHT22;28026;48.562;14.440;2023-06-26T14:07:13;28.20;99.90
41592;DHT22;28026;48.562;14.440;2023-06-26T14:09:44;26.90;99.90
41592;DHT22;28026;48.562;14.440;2023-06-26T14:12:15;26.50;99.90
41592;DHT22;28026;48.562;14.440;2023-06-26T14:14:46;26.60;99.90
41592;DHT22;28026;48.562;14.440;2023-06-26T14:17:17;27.00;99.90
41592;DHT22;28026;48.562;14.440;2023-06-26T14:19:47;27.20;99.90
41592;DHT22;28026;48.562;14.440;2023-06-26T14:22:18;27.00;99.90
41592;DHT22;28026;48.562;14.440;2023-06-26T14:24:49;27.50;99.90
41592;DHT22;28026;48.562;14.440;2023-06-26T14:27:20;27.40;99.30
41592;DHT22;28026;48.562;14.440;2023-06-26T14:29:51;27.30;99.90
41592;DHT22;28026;48.562;14.440;2023-06-26T14:32:22;27.00;99.90
41592;DHT22;28026;48.562;14.440;2023-06-26T14:34:52;27.10;99.90
41592;DHT22;28026;48.562;14.440;2023-06-26T14:37:23;27.20;99.30
41592;DHT22;28026;48.562;14.440;2023-06-26T14:39:55;27.10;99.60
41592;DHT22;28026;48.562;14.440;2023-06-26T14:42:27;27.60;99.90
41592;DHT22;28026;48.562;14.440;2023-06-26T14:44:58;27.00;99.70
41592;DHT22;28026;48.562;14.440;2023-06-26T14:47:29;26.00;99.90
41592;DHT22;28026;48.562;14.440;2023-06-26T14:50:00;26.40;99.90
41592;DHT22;28026;48.562;14.440;2023-06-26T14:52:31;26.70;99.90
41592;DHT22;28026;48.562;14.440;2023-06-26T14:55:02;26.90;99.90
41592;DHT22;28026;48.562;14.440;2023-06-26T14:57:33;27.00;99.90
41592;DHT22;28026;48.562;14.440;2023-06-26T15:00:05;27.70;99.90
41592;DHT22;28026;48.562;14.440;2023-06-26T15:02:36;28.40;99.00
41592;DHT22;28026;48.562;14.440;2023-06-26T15:05:07;28.50;98.10
41592;DHT22;28026;48.562;14.440;2023-06-26T15:07:38;27.30;98.90
41592;DHT22;28026;48.562;14.440;2023-06-26T15:10:09;27.20;99.70
41592;DHT22;28026;48.562;14.440;2023-06-26T15:12:40;26.80;99.90
41592;DHT22;28026;48.562;14.440;2023-06-26T15:15:11;26.60;99.90
41592;DHT22;28026;48.562;14.440;2023-06-26T15:17:42;27.10;99.60
41592;DHT22;28026;48.562;14.440;2023-06-26T15:20:12;26.90;99.90
41592;DHT22;28026;48.562;14.440;2023-06-26T15:22:43;26.90;99.80
41592;DHT22;28026;48.562;14.440;2023-06-26T15:25:14;27.60;98.90
41592;DHT22;28026;48.562;14.440;2023-06-26T15:27:45;28.00;98.80
41592;DHT22;28026;48.562;14.440;2023-06-26T15:30:16;28.10;97.80
41592;DHT22;28026;48.562;14.440;2023-06-26T15:32:47;27.60;97.80
41592;DHT22;28026;48.562;14.440;2023-06-26T15:35:17;27.70;97.30
41592;DHT22;28026;48.562;14.440;2023-06-26T15:37:48;28.20;97.80
41592;DHT22;28026;48.562;14.440;2023-06-26T15:40:22;28.30;97.50
41592;DHT22;28026;48.562;14.440;2023-06-26T15:42:53;27.80;96.90
41592;DHT22;28026;48.562;14.440;2023-06-26T15:45:23;27.50;97.90
41592;DHT22;28026;48.562;14.440;2023-06-26T15:47:55;28.00;97.70
41592;DHT22;28026;48.562;14.440;2023-06-26T15:50:26;27.90;98.20
41592;DHT22;28026;48.562;14.440;2023-06-26T15:52:58;27.60;96.10
41592;DHT22;28026;48.562;14.440;2023-06-26T15:55:33;27.90;96.80
41592;DHT22;28026;48.562;14.440;2023-06-26T15:58:04;28.20;96.10
41592;DHT22;28026;48.562;14.440;2023-06-26T16:00:35;28.10;96.40
41592;DHT22;28026;48.562;14.440;2023-06-26T16:03:06;27.80;96.50
41592;DHT22;28026;48.562;14.440;2023-06-26T16:05:36;27.60;96.70
41592;DHT22;28026;48.562;14.440;2023-06-26T16:08:07;27.70;97.60